sensor_id;sensor_type;location;lat;lon;timestamp;temperature;humidity
19000;DHT22;9633;50.980;13.850;2023-05-29T00:00:49;6.80;99.90
19000;DHT22;9633;50.980;13.850;2023-05-29T00:02:23;6.80;99.90
19000;DHT22;9633;50.980;13.850;2023-05-29T00:03:56;6.80;99.90
19000;DHT22;9633;50.980;13.850;2023-05-29T00:05:30;6.80;99.90
19000;DHT22;9633;50.980;13.850;2023-05-29T00:07:04;7.00;99.90
19000;DHT22;9633;50.980;13.850;2023-05-29T00:08:37;7.20;99.90
19000;DHT22;9633;50.980;13.850;2023-05-29T00:10:11;7.40;99.90
19000;DHT22;9633;50.980;13.850;2023-05-29T00:11:44;7.50;99.90
19000;DHT22;9633;50.980;13.850;2023-05-29T00:13:22;7.40;99.90
19000;DHT22;9633;50.980;13.850;2023-05-29T00:14:57;7.60;99.90
19000;DHT22;9633;50.980;13.850;2023-05-29T00:16:30;7.70;99.90
19000;DHT22;9633;50.980;13.850;2023-05-29T00:18:03;7.80;99.90
19000;DHT22;9633;50.980;13.850;2023-05-29T00:19:37;7.80;99.90
19000;DHT22;9633;50.980;13.850;2023-05-29T00:21:10;7.80;99.90
19000;DHT22;9633;50.980;13.850;2023-05-29T00:22:43;7.80;99.90
19000;DHT22;9633;50.980;13.850;2023-05-29T00:24:16;7.70;99.90
19000;DHT22;9633;50.980;13.850;2023-05-29T00:25:49;7.60;99.90
19000;DHT22;9633;50.980;13.850;2023-05-29T00:27:21;7.60;99.90
19000;DHT22;9633;50.980;13.850;2023-05-29T00:28:54;7.50;99.90
19000;DHT22;9633;50.980;13.850;2023-05-29T00:30:29;7.40;99.90
19000;DHT22;9633;50.980;13.850;2023-05-29T00:32:02;7.30;99.90
19000;DHT22;9633;50.980;13.850;2023-05-29T00:33:36;7.30;99.90
19000;DHT22;9633;50.980;13.850;2023-05-29T00:35:09;7.30;99.90
19000;DHT22;9633;50.980;13.850;2023-05-29T00:36:42;7.20;99.90
19000;DHT22;9633;50.980;13.850;2023-05-29T00:38:16;7.10;99.90
19000;DHT22;9633;50.980;13.850;2023-05-29T00:39:50;7.00;99.90
19000;DHT22;9633;50.980;13.850;2023-05-29T00:41:23;7.00;99.90
19000;DHT22;9633;50.980;13.850;2023-05-29T00:42:56;7.00;99.90
19000;DHT22;9633;50.980;13.850;2023-05-29T00:44:30;7.00;99.90
19000;DHT22;9633;50.980;13.850;2023-05-29T00:46:04;7.00;99.90
19000;DHT22;9633;50.980;13.850;2023-05-29T00:47:38;7.10;99.90
19000;DHT22;9633;50.980;13.850;2023-05-29T00:49:12;7.00;99.90
19000;DHT22;9633;50.980;13.850;2023-05-29T00:50:46;7.00;99.90
19000;DHT22;9633;50.980;13.850;2023-05-29T00:52:21;7.10;99.90
19000;DHT22;9633;50.980;13.850;2023-05-29T00:53:54;7.00;99.90
19000;DHT22;9633;50.980;13.850;2023-05-29T00:55:28;6.90;99.90
19000;DHT22;9633;50.980;13.850;2023-05-29T00:57:02;6.90;99.90
19000;DHT22;9633;50.980;13.850;2023-05-29T00:58:35;6.90;99.90
19000;DHT22;9633;50.980;13.850;2023-05-29T01:00:09;7.00;99.90
19000;DHT22;9633;50.980;13.850;2023-05-29T01:01:49;7.00;99.90
19000;DHT22;9633;50.980;13.850;2023-05-29T01:03:24;7.00;99.90
19000;DHT22;9633;50.980;13.850;2023-05-29T01:04:57;7.00;99.90
19000;DHT22;9633;50.980;13.850;2023-05-29T01:06:30;7.00;99.90
19000;DHT22;9633;50.980;13.850;2023-05-29T01:08:03;7.00;99.90
19000;DHT22;9633;50.980;13.850;2023-05-29T01:09:36;7.00;99.90
19000;DHT22;9633;50.980;13.850;2023-05-29T01:11:29;7.00;99.90
19000;DHT22;9633;50.980;13.850;2023-05-29T01:13:08;6.90;99.90
19000;DHT22;9633;50.980;13.850;2023-05-29T01:14:50;6.80;99.90
19000;DHT22;9633;50.980;13.850;2023-05-29T01:16:29;6.80;99.90
19000;DHT22;9633;50.980;13.850;2023-05-29T01:18:19;6.70;99.90
19000;DHT22;9633;50.980;13.850;2023-05-29T01:20:11;6.50;99.90
19000;DHT22;9633;50.980;13.850;2023-05-29T01:21:56;6.40;99.90
19000;DHT22;9633;50.980;13.850;2023-05-29T01:23:53;6.40;99.90
19000;DHT22;9633;50.980;13.850;2023-05-29T01:25:39;6.50;99.90
19000;DHT22;9633;50.980;13.850;2023-05-29T01:27:17;6.40;99.90
19000;DHT22;9633;50.980;13.850;2023-05-29T01:28:56;6.40;99.90
19000;DHT22;9633;50.980;13.850;2023-05-29T01:30:31;6.30;99.90
19000;DHT22;9633;50.980;13.850;2023-05-29T01:32:06;6.20;99.90
19000;DHT22;9633;50.980;13.850;2023-05-29T01:33:39;6.10;99.90
19000;DHT22;9633;50.980;13.850;2023-05-29T01:35:12;6.10;99.90
19000;DHT22;9633;50.980;13.850;2023-05-29T01:36:46;6.20;99.90
19000;DHT22;9633;50.980;13.850;2023-05-29T01:38:19;6.20;99.90
19000;DHT22;9633;50.980;13.850;2023-05-29T01:39:51;6.10;99.90
19000;DHT22;9633;50.980;13.850;2023-05-29T01:41:25;6.20;99.90
19000;DHT22;9633;50.980;13.850;2023-05-29T01:42:59;6.10;99.90
19000;DHT22;9633;50.980;13.850;2023-05-29T01:44:34;6.10;99.90
19000;DHT22;9633;50.980;13.850;2023-05-29T01:46:07;6.10;99.90
19000;DHT22;9633;50.980;13.850;2023-05-29T01:47:40;6.00;99.90
19000;DHT22;9633;50.980;13.850;2023-05-29T01:49:14;6.10;99.90
19000;DHT22;9633;50.980;13.850;2023-05-29T01:50:48;6.10;99.90
19000;DHT22;9633;50.980;13.850;2023-05-29T01:52:21;6.10;99.90
19000;DHT22;9633;50.980;13.850;2023-05-29T01:53:54;6.00;99.90
19000;DHT22;9633;50.980;13.850;2023-05-29T01:55:27;6.00;99.90
19000;DHT22;9633;50.980;13.850;2023-05-29T01:57:00;5.90;99.90
19000;DHT22;9633;50.980;13.850;2023-05-29T01:58:40;5.90;99.90
19000;DHT22;9633;50.980;13.850;2023-05-29T02:00:16;5.80;99.90
19000;DHT22;9633;50.980;13.850;2023-05-29T02:01:51;5.80;99.90
19000;DHT22;9633;50.980;13.850;2023-05-29T02:03:25;5.80;99.90
19000;DHT22;9633;50.980;13.850;2023-05-29T02:05:00;5.70;99.90
19000;DHT22;9633;50.980;13.850;2023-05-29T02:06:33;5.70;99.90
19000;DHT22;9633;50.980;13.850;2023-05-29T02:08:06;5.70;99.90
19000;DHT22;9633;50.980;13.850;2023-05-29T02:09:38;5.70;99.90
19000;DHT22;9633;50.980;13.850;2023-05-29T02:11:12;5.70;99.90
19000;DHT22;9633;50.980;13.850;2023-05-29T02:12:44;5.70;99.90
19000;DHT22;9633;50.980;13.850;2023-05-29T02:14:19;5.60;99.90
19000;DHT22;9633;50.980;13.850;2023-05-29T02:15:52;5.60;99.90
19000;DHT22;9633;50.980;13.850;2023-05-29T02:17:24;5.60;99.90
19000;DHT22;9633;50.980;13.850;2023-05-29T02:18:58;5.60;99.90
19000;DHT22;9633;50.980;13.850;2023-05-29T02:20:31;5.60;99.90
19000;DHT22;9633;50.980;13.850;2023-05-29T02:22:04;5.60;99.90
19000;DHT22;9633;50.980;13.850;2023-05-29T02:23:39;5.70;99.90
19000;DHT22;9633;50.980;13.850;2023-05-29T02:25:12;5.80;99.90
19000;DHT22;9633;50.980;13.850;2023-05-29T02:26:47;5.70;99.90
19000;DHT22;9633;50.980;13.850;2023-05-29T02:28:20;5.60;99.90
19000;DHT22;9633;50.980;13.850;2023-05-29T02:29:55;5.60;99.90
19000;DHT22;9633;50.980;13.850;2023-05-29T02:31:28;5.50;99.90
19000;DHT22;9633;50.980;13.850;2023-05-29T02:33:01;5.50;99.90
19000;DHT22;9633;50.980;13.850;2023-05-29T02:34:33;5.40;99.90
19000;DHT22;9633;50.980;13.850;2023-05-29T02:36:07;5.40;99.90
19000;DHT22;9633;50.980;13.850;2023-05-29T02:37:42;5.40;99.90
19000;DHT22;9633;50.980;13.850;2023-05-29T02:39:14;5.40;99.90
19000;DHT22;9633;50.980;13.850;2023-05-29T02:40:47;5.40;99.90
19000;DHT22;9633;50.980;13.850;2023-05-29T02:42:20;5.50;99.90
19000;DHT22;9633;50.980;13.850;2023-05-29T02:43:52;5.50;99.90
19000;DHT22;9633;50.980;13.850;2023-05-29T02:45:27;5.50;99.90
19000;DHT22;9633;50.980;13.850;2023-05-29T02:47:00;5.40;99.90
19000;DHT22;9633;50.980;13.850;2023-05-29T02:48:33;5.40;99.90
19000;DHT22;9633;50.980;13.850;2023-05-29T02:50:06;5.30;99.90
19000;DHT22;9633;50.980;13.850;2023-05-29T02:51:40;5.30;99.90
19000;DHT22;9633;50.980;13.850;2023-05-29T02:53:13;5.40;99.90
19000;DHT22;9633;50.980;13.850;2023-05-29T02:54:46;5.50;99.90
19000;DHT22;9633;50.980;13.850;2023-05-29T02:56:19;5.50;99.90
19000;DHT22;9633;50.980;13.850;2023-05-29T02:57:55;5.60;99.90
19000;DHT22;9633;50.980;13.850;2023-05-29T02:59:28;5.50;99.90
19000;DHT22;9633;50.980;13.850;2023-05-29T03:01:05;5.50;99.90
19000;DHT22;9633;50.980;13.850;2023-05-29T03:02:38;5.50;99.90
19000;DHT22;9633;50.980;13.850;2023-05-29T03:04:11;5.50;99.90
19000;DHT22;9633;50.980;13.850;2023-05-29T03:05:44;5.50;99.90
19000;DHT22;9633;50.980;13.850;2023-05-29T03:07:17;5.50;99.90
19000;DHT22;9633;50.980;13.850;2023-05-29T03:08:50;5.60;99.90
19000;DHT22;9633;50.980;13.850;2023-05-29T03:10:24;5.70;99.90
19000;DHT22;9633;50.980;13.850;2023-05-29T03:11:58;5.70;99.90
19000;DHT22;9633;50.980;13.850;2023-05-29T03:13:33;5.70;99.90
19000;DHT22;9633;50.980;13.850;2023-05-29T03:15:10;5.70;99.90
19000;DHT22;9633;50.980;13.850;2023-05-29T03:16:44;5.70;99.90
19000;DHT22;9633;50.980;13.850;2023-05-29T03:18:17;5.70;99.90
19000;DHT22;9633;50.980;13.850;2023-05-29T03:19:50;5.70;99.90
19000;DHT22;9633;50.980;13.850;2023-05-29T03:21:23;5.60;99.90
19000;DHT22;9633;50.980;13.850;2023-05-29T03:22:57;5.70;99.90
19000;DHT22;9633;50.980;13.850;2023-05-29T03:24:31;5.70;99.90
19000;DHT22;9633;50.980;13.850;2023-05-29T03:26:06;5.60;99.90
19000;DHT22;9633;50.980;13.850;2023-05-29T03:27:40;5.60;99.90
19000;DHT22;9633;50.980;13.850;2023-05-29T03:29:16;5.60;99.90
19000;DHT22;9633;50.980;13.850;2023-05-29T03:30:50;5.60;99.90
19000;DHT22;9633;50.980;13.850;2023-05-29T03:32:26;5.70;99.90
19000;DHT22;9633;50.980;13.850;2023-05-29T03:34:00;5.70;99.90
19000;DHT22;9633;50.980;13.850;2023-05-29T03:35:43;5.70;99.90
19000;DHT22;9633;50.980;13.850;2023-05-29T03:37:16;5.80;99.90
19000;DHT22;9633;50.980;13.850;2023-05-29T03:38:49;5.80;99.90
19000;DHT22;9633;50.980;13.850;2023-05-29T03:40:23;5.80;99.90
19000;DHT22;9633;50.980;13.850;2023-05-29T03:41:56;5.90;99.90
19000;DHT22;9633;50.980;13.850;2023-05-29T03:43:30;6.00;99.90
19000;DHT22;9633;50.980;13.850;2023-05-29T03:45:03;6.10;99.90
19000;DHT22;9633;50.980;13.850;2023-05-29T03:46:39;6.20;99.90
19000;DHT22;9633;50.980;13.850;2023-05-29T03:48:13;6.20;99.90
19000;DHT22;9633;50.980;13.850;2023-05-29T03:49:50;6.30;99.90
19000;DHT22;9633;50.980;13.850;2023-05-29T03:51:23;6.40;99.90
19000;DHT22;9633;50.980;13.850;2023-05-29T03:52:59;6.50;99.90
19000;DHT22;9633;50.980;13.850;2023-05-29T03:54:33;6.60;99.90
19000;DHT22;9633;50.980;13.850;2023-05-29T03:56:07;6.80;99.90
19000;DHT22;9633;50.980;13.850;2023-05-29T03:57:41;6.80;99.90
19000;DHT22;9633;50.980;13.850;2023-05-29T03:59:14;7.00;99.90
19000;DHT22;9633;50.980;13.850;2023-05-29T04:00:47;7.10;99.90
19000;DHT22;9633;50.980;13.850;2023-05-29T04:02:23;7.20;99.90
19000;DHT22;9633;50.980;13.850;2023-05-29T04:03:58;7.30;99.90
19000;DHT22;9633;50.980;13.850;2023-05-29T04:05:30;7.50;99.90
19000;DHT22;9633;50.980;13.850;2023-05-29T04:07:03;7.60;99.90
19000;DHT22;9633;50.980;13.850;2023-05-29T04:08:36;7.70;99.90
19000;DHT22;9633;50.980;13.850;2023-05-29T04:10:10;7.80;99.90
19000;DHT22;9633;50.980;13.850;2023-05-29T04:11:43;7.90;99.90
19000;DHT22;9633;50.980;13.850;2023-05-29T04:13:18;8.00;99.90
19000;DHT22;9633;50.980;13.850;2023-05-29T04:14:51;8.10;99.90
19000;DHT22;9633;50.980;13.850;2023-05-29T04:16:24;8.20;99.90
19000;DHT22;9633;50.980;13.850;2023-05-29T04:17:57;8.30;99.90
19000;DHT22;9633;50.980;13.850;2023-05-29T04:19:31;8.40;99.90
19000;DHT22;9633;50.980;13.850;2023-05-29T04:21:05;8.50;99.90
19000;DHT22;9633;50.980;13.850;2023-05-29T04:22:38;8.70;99.90
19000;DHT22;9633;50.980;13.850;2023-05-29T04:24:12;8.80;99.90
19000;DHT22;9633;50.980;13.850;2023-05-29T04:25:45;8.90;99.90
19000;DHT22;9633;50.980;13.850;2023-05-29T04:27:22;9.00;99.90
19000;DHT22;9633;50.980;13.850;2023-05-29T04:28:56;9.00;99.90
19000;DHT22;9633;50.980;13.850;2023-05-29T04:30:30;9.20;99.90
19000;DHT22;9633;50.980;13.850;2023-05-29T04:32:06;9.30;99.90
19000;DHT22;9633;50.980;13.850;2023-05-29T04:33:42;9.40;99.90
19000;DHT22;9633;50.980;13.850;2023-05-29T04:35:18;9.50;99.90
19000;DHT22;9633;50.980;13.850;2023-05-29T04:37:02;9.60;99.90
19000;DHT22;9633;50.980;13.850;2023-05-29T04:38:36;9.70;99.90
19000;DHT22;9633;50.980;13.850;2023-05-29T04:40:09;9.80;99.90
19000;DHT22;9633;50.980;13.850;2023-05-29T04:41:44;9.90;99.90
19000;DHT22;9633;50.980;13.850;2023-05-29T04:43:20;10.00;99.90
19000;DHT22;9633;50.980;13.850;2023-05-29T04:45:03;10.10;99.90
19000;DHT22;9633;50.980;13.850;2023-05-29T04:46:40;10.20;99.90
19000;DHT22;9633;50.980;13.850;2023-05-29T04:48:16;10.30;99.90
19000;DHT22;9633;50.980;13.850;2023-05-29T04:49:49;10.50;99.90
19000;DHT22;9633;50.980;13.850;2023-05-29T04:51:24;10.40;99.90
19000;DHT22;9633;50.980;13.850;2023-05-29T04:53:00;10.50;99.90
19000;DHT22;9633;50.980;13.850;2023-05-29T04:54:34;10.60;99.90
19000;DHT22;9633;50.980;13.850;2023-05-29T04:56:07;10.50;99.90
19000;DHT22;9633;50.980;13.850;2023-05-29T04:57:42;10.30;99.90
19000;DHT22;9633;50.980;13.850;2023-05-29T04:59:15;10.30;99.90
19000;DHT22;9633;50.980;13.850;2023-05-29T05:00:50;10.20;99.90
19000;DHT22;9633;50.980;13.850;2023-05-29T05:02:23;10.30;99.90
19000;DHT22;9633;50.980;13.850;2023-05-29T05:03:56;10.20;99.90
19000;DHT22;9633;50.980;13.850;2023-05-29T05:05:30;10.30;99.90
19000;DHT22;9633;50.980;13.850;2023-05-29T05:07:06;10.20;99.90
19000;DHT22;9633;50.980;13.850;2023-05-29T05:08:41;10.40;99.90
19000;DHT22;9633;50.980;13.850;2023-05-29T05:10:14;10.70;99.90
19000;DHT22;9633;50.980;13.850;2023-05-29T05:11:47;10.70;99.90
19000;DHT22;9633;50.980;13.850;2023-05-29T05:13:22;10.80;99.90
19000;DHT22;9633;50.980;13.850;2023-05-29T05:14:56;10.80;99.90
19000;DHT22;9633;50.980;13.850;2023-05-29T05:16:29;11.00;99.90
19000;DHT22;9633;50.980;13.850;2023-05-29T05:18:03;11.10;99.90
19000;DHT22;9633;50.980;13.850;2023-05-29T05:19:38;11.10;99.90
19000;DHT22;9633;50.980;13.850;2023-05-29T05:21:11;11.10;99.90
19000;DHT22;9633;50.980;13.850;2023-05-29T05:22:46;11.50;99.90
19000;DHT22;9633;50.980;13.850;2023-05-29T05:24:19;11.80;99.90
19000;DHT22;9633;50.980;13.850;2023-05-29T05:25:51;12.00;99.90
19000;DHT22;9633;50.980;13.850;2023-05-29T05:27:24;12.00;99.90
19000;DHT22;9633;50.980;13.850;2023-05-29T05:28:58;12.40;99.90
19000;DHT22;9633;50.980;13.850;2023-05-29T05:30:33;12.70;99.90
19000;DHT22;9633;50.980;13.850;2023-05-29T05:32:07;13.00;99.90
19000;DHT22;9633;50.980;13.850;2023-05-29T05:33:40;13.00;99.90
19000;DHT22;9633;50.980;13.850;2023-05-29T05:35:13;13.10;99.90
19000;DHT22;9633;50.980;13.850;2023-05-29T05:36:48;13.20;99.90
19000;DHT22;9633;50.980;13.850;2023-05-29T05:38:23;13.10;99.90
19000;DHT22;9633;50.980;13.850;2023-05-29T05:39:56;13.10;99.90
19000;DHT22;9633;50.980;13.850;2023-05-29T05:41:33;13.20;99.90
19000;DHT22;9633;50.980;13.850;2023-05-29T05:43:06;13.70;99.90
19000;DHT22;9633;50.980;13.850;2023-05-29T05:45:10;14.00;99.90
19000;DHT22;9633;50.980;13.850;2023-05-29T05:46:43;13.90;99.90
19000;DHT22;9633;50.980;13.850;2023-05-29T05:48:17;14.60;99.90
19000;DHT22;9633;50.980;13.850;2023-05-29T05:49:50;16.90;90.70
19000;DHT22;9633;50.980;13.850;2023-05-29T05:51:24;19.00;45.50
19000;DHT22;9633;50.980;13.850;2023-05-29T05:52:58;19.90;42.20
19000;DHT22;9633;50.980;13.850;2023-05-29T05:54:33;20.40;48.60
19000;DHT22;9633;50.980;13.850;2023-05-29T05:56:06;22.50;37.70
19000;DHT22;9633;50.980;13.850;2023-05-29T05:57:40;23.30;50.30
19000;DHT22;9633;50.980;13.850;2023-05-29T05:59:13;23.60;44.30
19000;DHT22;9633;50.980;13.850;2023-05-29T06:00:47;24.00;45.50
19000;DHT22;9633;50.980;13.850;2023-05-29T06:02:24;23.60;41.10
19000;DHT22;9633;50.980;13.850;2023-05-29T06:03:58;25.10;42.00
19000;DHT22;9633;50.980;13.850;2023-05-29T06:05:31;24.90;45.80
19000;DHT22;9633;50.980;13.850;2023-05-29T06:07:06;24.90;48.10
19000;DHT22;9633;50.980;13.850;2023-05-29T06:08:40;23.60;48.40
19000;DHT22;9633;50.980;13.850;2023-05-29T06:10:16;25.20;47.00
19000;DHT22;9633;50.980;13.850;2023-05-29T06:11:49;26.50;53.50
19000;DHT22;9633;50.980;13.850;2023-05-29T06:13:22;26.80;48.00
19000;DHT22;9633;50.980;13.850;2023-05-29T06:16:36;26.40;50.60
19000;DHT22;9633;50.980;13.850;2023-05-29T06:18:09;27.50;57.50
19000;DHT22;9633;50.980;13.850;2023-05-29T06:19:42;28.40;59.40
19000;DHT22;9633;50.980;13.850;2023-05-29T06:22:55;27.40;57.20
19000;DHT22;9633;50.980;13.850;2023-05-29T06:35:30;24.00;59.40
19000;DHT22;9633;50.980;13.850;2023-05-29T06:37:03;27.50;58.20
19000;DHT22;9633;50.980;13.850;2023-05-29T06:38:37;28.10;60.90
19000;DHT22;9633;50.980;13.850;2023-05-29T06:40:12;29.40;57.30
19000;DHT22;9633;50.980;13.850;2023-05-29T06:41:46;29.00;52.80
19000;DHT22;9633;50.980;13.850;2023-05-29T06:43:22;28.10;59.70
19000;DHT22;9633;50.980;13.850;2023-05-29T06:45:01;29.20;57.00
19000;DHT22;9633;50.980;13.850;2023-05-29T06:46:34;29.70;50.70
19000;DHT22;9633;50.980;13.850;2023-05-29T06:48:08;30.50;49.10
19000;DHT22;9633;50.980;13.850;2023-05-29T06:49:43;29.70;50.30
19000;DHT22;9633;50.980;13.850;2023-05-29T06:51:17;30.10;54.00
19000;DHT22;9633;50.980;13.850;2023-05-29T06:52:59;31.10;52.50
19000;DHT22;9633;50.980;13.850;2023-05-29T06:54:40;31.20;56.60
19000;DHT22;9633;50.980;13.850;2023-05-29T06:56:13;30.40;55.80
19000;DHT22;9633;50.980;13.850;2023-05-29T06:57:50;31.20;55.40
19000;DHT22;9633;50.980;13.850;2023-05-29T06:59:23;30.10;54.70
19000;DHT22;9633;50.980;13.850;2023-05-29T07:00:57;30.30;55.80
19000;DHT22;9633;50.980;13.850;2023-05-29T07:02:37;31.20;59.60
19000;DHT22;9633;50.980;13.850;2023-05-29T07:04:11;31.20;55.80
19000;DHT22;9633;50.980;13.850;2023-05-29T07:05:45;31.30;55.60
19000;DHT22;9633;50.980;13.850;2023-05-29T07:07:18;31.60;57.50
19000;DHT22;9633;50.980;13.850;2023-05-29T07:08:51;32.10;60.50
19000;DHT22;9633;50.980;13.850;2023-05-29T07:10:24;32.30;61.90
19000;DHT22;9633;50.980;13.850;2023-05-29T07:11:57;31.20;63.80
19000;DHT22;9633;50.980;13.850;2023-05-29T07:13:32;31.50;61.50
19000;DHT22;9633;50.980;13.850;2023-05-29T07:15:06;32.90;58.60
19000;DHT22;9633;50.980;13.850;2023-05-29T07:16:41;31.40;59.00
19000;DHT22;9633;50.980;13.850;2023-05-29T07:18:16;31.50;59.80
19000;DHT22;9633;50.980;13.850;2023-05-29T07:19:49;31.60;57.50
19000;DHT22;9633;50.980;13.850;2023-05-29T07:21:22;28.80;54.80
19000;DHT22;9633;50.980;13.850;2023-05-29T07:22:55;27.80;50.80
19000;DHT22;9633;50.980;13.850;2023-05-29T07:24:28;27.80;54.70
19000;DHT22;9633;50.980;13.850;2023-05-29T07:26:02;27.00;55.10
19000;DHT22;9633;50.980;13.850;2023-05-29T07:27:35;28.40;58.00
19000;DHT22;9633;50.980;13.850;2023-05-29T07:29:10;30.50;57.00
19000;DHT22;9633;50.980;13.850;2023-05-29T07:30:44;31.90;58.60
19000;DHT22;9633;50.980;13.850;2023-05-29T07:32:19;30.50;57.40
19000;DHT22;9633;50.980;13.850;2023-05-29T07:33:54;30.20;58.30
19000;DHT22;9633;50.980;13.850;2023-05-29T07:35:27;30.30;58.70
19000;DHT22;9633;50.980;13.850;2023-05-29T07:37:02;30.60;60.60
19000;DHT22;9633;50.980;13.850;2023-05-29T07:38:37;28.70;55.50
19000;DHT22;9633;50.980;13.850;2023-05-29T07:40:11;26.00;53.70
19000;DHT22;9633;50.980;13.850;2023-05-29T07:42:10;26.40;56.10
19000;DHT22;9633;50.980;13.850;2023-05-29T07:43:46;27.60;61.90
19000;DHT22;9633;50.980;13.850;2023-05-29T07:45:26;28.40;57.80
19000;DHT22;9633;50.980;13.850;2023-05-29T07:48:41;26.00;57.60
19000;DHT22;9633;50.980;13.850;2023-05-29T07:50:15;26.10;61.80
19000;DHT22;9633;50.980;13.850;2023-05-29T07:51:48;25.10;53.00
19000;DHT22;9633;50.980;13.850;2023-05-29T07:53:21;24.70;54.30
19000;DHT22;9633;50.980;13.850;2023-05-29T07:54:55;26.30;56.90
19000;DHT22;9633;50.980;13.850;2023-05-29T07:56:28;28.10;59.30
19000;DHT22;9633;50.980;13.850;2023-05-29T07:59:36;24.90;55.00
19000;DHT22;9633;50.980;13.850;2023-05-29T08:01:11;23.60;58.00
19000;DHT22;9633;50.980;13.850;2023-05-29T08:02:46;25.60;59.80
19000;DHT22;9633;50.980;13.850;2023-05-29T08:04:39;27.00;55.50
19000;DHT22;9633;50.980;13.850;2023-05-29T08:06:13;28.00;53.80
19000;DHT22;9633;50.980;13.850;2023-05-29T08:07:46;28.90;54.50
19000;DHT22;9633;50.980;13.850;2023-05-29T08:09:20;29.40;53.90
19000;DHT22;9633;50.980;13.850;2023-05-29T08:10:53;29.50;57.20
19000;DHT22;9633;50.980;13.850;2023-05-29T08:12:27;27.50;56.60
19000;DHT22;9633;50.980;13.850;2023-05-29T08:14:02;28.90;58.40
19000;DHT22;9633;50.980;13.850;2023-05-29T08:15:36;29.50;56.90
19000;DHT22;9633;50.980;13.850;2023-05-29T08:17:10;30.30;57.60
19000;DHT22;9633;50.980;13.850;2023-05-29T08:18:43;28.40;56.50
19000;DHT22;9633;50.980;13.850;2023-05-29T08:20:17;30.20;58.70
19000;DHT22;9633;50.980;13.850;2023-05-29T08:21:50;30.50;59.80
19000;DHT22;9633;50.980;13.850;2023-05-29T08:23:24;30.20;57.70
19000;DHT22;9633;50.980;13.850;2023-05-29T08:24:57;28.30;56.80
19000;DHT22;9633;50.980;13.850;2023-05-29T08:26:30;27.10;56.70
19000;DHT22;9633;50.980;13.850;2023-05-29T08:28:03;28.30;59.40
19000;DHT22;9633;50.980;13.850;2023-05-29T08:29:37;27.90;58.30
19000;DHT22;9633;50.980;13.850;2023-05-29T08:31:10;27.00;56.60
19000;DHT22;9633;50.980;13.850;2023-05-29T08:32:44;27.50;59.00
19000;DHT22;9633;50.980;13.850;2023-05-29T08:34:18;28.80;58.40
19000;DHT22;9633;50.980;13.850;2023-05-29T08:35:54;28.40;57.50
19000;DHT22;9633;50.980;13.850;2023-05-29T08:37:27;26.90;57.00
19000;DHT22;9633;50.980;13.850;2023-05-29T08:39:01;25.80;57.20
19000;DHT22;9633;50.980;13.850;2023-05-29T08:40:34;25.80;61.00
19000;DHT22;9633;50.980;13.850;2023-05-29T08:42:10;26.20;63.20
19000;DHT22;9633;50.980;13.850;2023-05-29T08:43:46;26.70;57.90
19000;DHT22;9633;50.980;13.850;2023-05-29T08:45:22;24.70;55.50
19000;DHT22;9633;50.980;13.850;2023-05-29T08:46:56;24.10;58.60
19000;DHT22;9633;50.980;13.850;2023-05-29T08:48:31;24.60;55.60
19000;DHT22;9633;50.980;13.850;2023-05-29T08:50:06;25.50;58.80
19000;DHT22;9633;50.980;13.850;2023-05-29T08:51:41;26.70;56.30
19000;DHT22;9633;50.980;13.850;2023-05-29T08:53:15;26.90;56.80
19000;DHT22;9633;50.980;13.850;2023-05-29T08:54:52;27.20;58.10
19000;DHT22;9633;50.980;13.850;2023-05-29T08:56:26;27.70;56.80
19000;DHT22;9633;50.980;13.850;2023-05-29T08:58:06;27.80;56.90
19000;DHT22;9633;50.980;13.850;2023-05-29T08:59:42;27.60;54.80
19000;DHT22;9633;50.980;13.850;2023-05-29T09:01:15;28.50;56.20
19000;DHT22;9633;50.980;13.850;2023-05-29T09:02:48;28.60;56.70
19000;DHT22;9633;50.980;13.850;2023-05-29T09:04:25;28.90;55.90
19000;DHT22;9633;50.980;13.850;2023-05-29T09:05:58;29.10;54.80
19000;DHT22;9633;50.980;13.850;2023-05-29T09:07:32;29.40;58.50
19000;DHT22;9633;50.980;13.850;2023-05-29T09:09:05;29.00;56.30
19000;DHT22;9633;50.980;13.850;2023-05-29T09:10:39;27.10;54.60
19000;DHT22;9633;50.980;13.850;2023-05-29T09:12:13;28.30;57.30
19000;DHT22;9633;50.980;13.850;2023-05-29T09:13:47;27.20;58.80
19000;DHT22;9633;50.980;13.850;2023-05-29T09:15:22;26.00;56.20
19000;DHT22;9633;50.980;13.850;2023-05-29T09:16:55;25.00;55.60
19000;DHT22;9633;50.980;13.850;2023-05-29T09:18:29;24.80;56.60
19000;DHT22;9633;50.980;13.850;2023-05-29T09:20:14;24.60;59.30
19000;DHT22;9633;50.980;13.850;2023-05-29T09:21:48;26.60;56.40
19000;DHT22;9633;50.980;13.850;2023-05-29T09:23:21;27.80;59.20
19000;DHT22;9633;50.980;13.850;2023-05-29T09:24:54;29.00;57.50
19000;DHT22;9633;50.980;13.850;2023-05-29T09:26:28;28.50;57.90
19000;DHT22;9633;50.980;13.850;2023-05-29T09:28:03;28.80;56.60
19000;DHT22;9633;50.980;13.850;2023-05-29T09:29:38;29.70;61.30
19000;DHT22;9633;50.980;13.850;2023-05-29T09:31:14;28.90;56.50
19000;DHT22;9633;50.980;13.850;2023-05-29T09:32:53;28.50;57.90
19000;DHT22;9633;50.980;13.850;2023-05-29T09:34:26;26.70;53.30
19000;DHT22;9633;50.980;13.850;2023-05-29T09:36:01;25.20;56.50
19000;DHT22;9633;50.980;13.850;2023-05-29T09:37:35;25.70;56.90
19000;DHT22;9633;50.980;13.850;2023-05-29T09:39:08;26.20;56.00
19000;DHT22;9633;50.980;13.850;2023-05-29T09:40:49;26.90;61.60
19000;DHT22;9633;50.980;13.850;2023-05-29T09:42:22;27.60;55.60
19000;DHT22;9633;50.980;13.850;2023-05-29T09:44:00;27.10;54.10
19000;DHT22;9633;50.980;13.850;2023-05-29T09:45:38;26.50;53.70
19000;DHT22;9633;50.980;13.850;2023-05-29T09:47:14;25.50;49.70
19000;DHT22;9633;50.980;13.850;2023-05-29T09:48:48;25.00;53.50
19000;DHT22;9633;50.980;13.850;2023-05-29T09:50:25;25.20;52.20
19000;DHT22;9633;50.980;13.850;2023-05-29T09:52:00;26.50;54.10
19000;DHT22;9633;50.980;13.850;2023-05-29T09:53:33;26.90;53.10
19000;DHT22;9633;50.980;13.850;2023-05-29T09:55:07;27.10;51.80
19000;DHT22;9633;50.980;13.850;2023-05-29T09:56:42;27.20;54.50
19000;DHT22;9633;50.980;13.850;2023-05-29T09:58:16;27.70;52.80
19000;DHT22;9633;50.980;13.850;2023-05-29T09:59:50;27.50;57.20
19000;DHT22;9633;50.980;13.850;2023-05-29T10:01:25;28.30;57.00
19000;DHT22;9633;50.980;13.850;2023-05-29T10:02:59;27.70;50.10
19000;DHT22;9633;50.980;13.850;2023-05-29T10:04:33;27.20;54.60
19000;DHT22;9633;50.980;13.850;2023-05-29T10:06:07;28.30;52.80
19000;DHT22;9633;50.980;13.850;2023-05-29T10:07:44;29.30;55.00
19000;DHT22;9633;50.980;13.850;2023-05-29T10:09:21;27.60;50.10
19000;DHT22;9633;50.980;13.850;2023-05-29T10:10:59;26.70;52.80
19000;DHT22;9633;50.980;13.850;2023-05-29T10:12:36;26.10;50.80
19000;DHT22;9633;50.980;13.850;2023-05-29T10:14:14;25.00;47.80
19000;DHT22;9633;50.980;13.850;2023-05-29T10:15:50;26.10;51.20
19000;DHT22;9633;50.980;13.850;2023-05-29T10:17:30;27.30;50.60
19000;DHT22;9633;50.980;13.850;2023-05-29T10:19:06;28.60;56.00
19000;DHT22;9633;50.980;13.850;2023-05-29T10:20:44;27.90;53.90